createdAt,value
2023-01-20T00:02:38.344Z,17.50
2023-01-20T00:05:26.077Z,18.67
2023-01-20T00:08:12.381Z,25.27
2023-01-20T00:10:59.219Z,18.83
2023-01-20T00:13:45.464Z,17.10
2023-01-20T00:16:33.406Z,20.77
2023-01-20T00:19:19.637Z,18.10
2023-01-20T00:22:07.231Z,22.10
2023-01-20T00:24:53.648Z,18.77
2023-01-20T00:27:40.061Z,19.13
2023-01-20T00:30:26.490Z,18.03
2023-01-20T00:33:12.945Z,16.17
2023-01-20T00:35:59.261Z,20.27
2023-01-20T00:38:46.920Z,15.23
2023-01-20T00:41:33.285Z,17.70
2023-01-20T00:44:19.778Z,17.10
2023-01-20T00:47:06.468Z,18.73
2023-01-20T00:49:53.044Z,18.07
2023-01-20T00:52:39.546Z,16.23
2023-01-20T00:55:27.181Z,20.03
2023-01-20T00:58:13.611Z,19.73
2023-01-20T01:01:00.478Z,19.43
2023-01-20T01:03:47.050Z,23.33
2023-01-20T01:06:33.465Z,19.53
2023-01-20T01:09:21.657Z,22.97
2023-01-20T01:12:09.338Z,21.47
2023-01-20T01:14:55.888Z,27.33
2023-01-20T01:17:44.936Z,18.83
2023-01-20T01:20:31.855Z,18.23
2023-01-20T01:23:18.217Z,19.27
2023-01-20T01:26:04.985Z,19.03
2023-01-20T01:28:53.390Z,23.07
2023-01-20T01:31:40.025Z,19.17
2023-01-20T01:34:27.181Z,24.03
2023-01-20T01:37:13.462Z,19.17
2023-01-20T01:39:59.629Z,15.47
2023-01-20T01:42:45.947Z,19.03
2023-01-20T01:45:35.181Z,16.27
2023-01-20T01:48:24.585Z,20.17
2023-01-20T01:51:16.532Z,15.63
2023-01-20T01:54:09.782Z,17.43
2023-01-20T01:56:56.803Z,16.33
2023-01-20T01:59:45.053Z,14.63
2023-01-20T02:02:33.806Z,25.80
2023-01-20T02:05:21.670Z,21.20
2023-01-20T02:08:09.664Z,18.87
2023-01-20T02:10:56.319Z,21.83
2023-01-20T02:13:42.842Z,17.97
2023-01-20T02:16:38.899Z,16.83
2023-01-20T02:20:03.879Z,17.20
2023-01-20T02:22:53.706Z,17.20
2023-01-20T02:26:09.574Z,22.63
2023-01-20T02:29:30.205Z,16.90
2023-01-20T02:32:27.003Z,17.97
2023-01-20T02:35:21.581Z,20.33
2023-01-20T02:38:17.321Z,18.77
2023-01-20T02:41:11.086Z,22.50
2023-01-20T02:44:01.777Z,15.50
2023-01-20T02:46:55.094Z,16.20
2023-01-20T02:49:50.311Z,14.17
2023-01-20T02:52:40.305Z,18.63
2023-01-20T02:55:32.200Z,17.63
2023-01-20T02:58:24.877Z,19.20
2023-01-20T03:01:14.437Z,17.90
2023-01-20T03:04:03.841Z,17.50
2023-01-20T03:06:55.842Z,20.57
2023-01-20T03:09:48.557Z,17.33
2023-01-20T03:12:41.070Z,16.33
2023-01-20T03:15:35.968Z,23.10
2023-01-20T03:18:23.943Z,12.17
2023-01-20T03:21:11.369Z,17.00
2023-01-20T03:24:02.358Z,18.30
2023-01-20T03:26:48.726Z,15.70
2023-01-20T03:29:35.279Z,19.20
2023-01-20T03:32:26.101Z,20.13
2023-01-20T03:35:13.860Z,17.23
2023-01-20T03:38:00.801Z,18.57
2023-01-20T03:40:55.965Z,14.30
2023-01-20T03:43:46.233Z,15.87
2023-01-20T03:46:41.032Z,14.63
2023-01-20T03:49:33.342Z,18.67
2023-01-20T03:52:47.017Z,19.77
2023-01-20T03:55:37.853Z,19.13
2023-01-20T03:58:30.410Z,20.30
2023-01-20T04:01:20.495Z,18.17
2023-01-20T04:04:12.138Z,17.17
2023-01-20T04:06:59.209Z,19.87
2023-01-20T04:09:49.840Z,19.03
2023-01-20T04:12:36.577Z,23.87
2023-01-20T04:15:26.106Z,21.90
2023-01-20T04:18:15.004Z,19.00
2023-01-20T04:21:03.681Z,18.27
2023-01-20T04:23:57.933Z,20.13
2023-01-20T04:26:44.374Z,19.93
2023-01-20T04:29:30.672Z,21.23
2023-01-20T04:32:19.002Z,22.07
2023-01-20T04:35:05.853Z,17.87
2023-01-20T04:37:52.251Z,19.80
2023-01-20T04:40:38.594Z,18.77
2023-01-20T04:43:25.234Z,18.90
2023-01-20T04:46:12.560Z,22.83
2023-01-20T04:49:00.294Z,16.70
2023-01-20T04:51:46.973Z,20.10
2023-01-20T04:54:33.317Z,26.50
2023-01-20T04:57:19.519Z,19.43
2023-01-20T05:00:08.450Z,23.37
2023-01-20T05:02:58.431Z,21.53
2023-01-20T05:05:53.264Z,16.67
2023-01-20T05:08:39.788Z,17.53
2023-01-20T05:11:26.452Z,25.03
2023-01-20T05:14:13.048Z,19.27
2023-01-20T05:16:59.739Z,16.53
2023-01-20T05:19:46.011Z,16.43
2023-01-20T05:22:34.072Z,20.80
2023-01-20T05:25:20.597Z,14.30
2023-01-20T05:28:07.122Z,16.30
2023-01-20T05:30:53.831Z,16.57
2023-01-20T05:33:40.751Z,17.07
2023-01-20T05:36:28.240Z,15.97
2023-01-20T05:39:15.925Z,21.80
2023-01-20T05:42:02.537Z,18.23
2023-01-20T05:44:48.817Z,14.63
2023-01-20T05:47:35.100Z,15.43
2023-01-20T05:50:21.637Z,16.43
2023-01-20T05:53:08.047Z,19.60
2023-01-20T05:56:02.071Z,32.20
2023-01-20T05:58:48.226Z,31.10
2023-01-20T06:01:34.797Z,29.63
2023-01-20T06:04:21.010Z,69.37
2023-01-20T06:07:07.609Z,73.13
2023-01-20T06:09:53.978Z,73.23
2023-01-20T06:12:42.090Z,105.83
2023-01-20T06:15:29.485Z,62.23
2023-01-20T06:18:15.850Z,67.10
2023-01-20T06:21:02.401Z,34.73
2023-01-20T06:23:48.960Z,26.40
2023-01-20T06:26:35.322Z,24.67
2023-01-20T06:29:23.185Z,23.10
2023-01-20T06:32:09.365Z,22.73
2023-01-20T06:34:55.919Z,22.07
2023-01-20T06:37:42.248Z,22.57
2023-01-20T06:40:28.597Z,20.87
2023-01-20T06:43:15.104Z,19.70
2023-01-20T06:46:04.088Z,20.37
2023-01-20T06:48:51.663Z,19.03
2023-01-20T06:51:37.939Z,19.63
2023-01-20T06:54:24.418Z,22.03
2023-01-20T06:57:10.691Z,17.73
2023-01-20T06:59:58.779Z,16.67
2023-01-20T07:02:46.505Z,22.67
2023-01-20T07:05:32.976Z,23.93
2023-01-20T07:08:19.451Z,22.63
2023-01-20T07:11:05.988Z,25.10
2023-01-20T07:13:52.412Z,27.07
2023-01-20T07:16:39.119Z,24.57
2023-01-20T07:19:27.103Z,23.93
2023-01-20T07:22:13.441Z,21.07
2023-01-20T07:25:00.838Z,19.60
2023-01-20T07:27:47.505Z,20.70
2023-01-20T07:30:33.816Z,22.60
2023-01-20T07:33:20.149Z,25.80
2023-01-20T07:36:08.995Z,18.10
2023-01-20T07:38:55.599Z,21.03
2023-01-20T07:41:43.658Z,20.27
2023-01-20T07:44:30.160Z,18.60
2023-01-20T07:47:16.792Z,23.37
2023-01-20T07:50:03.502Z,18.80
2023-01-20T07:52:51.171Z,29.57
2023-01-20T07:55:37.523Z,18.93
2023-01-20T07:58:24.055Z,18.40
2023-01-20T08:01:12.653Z,16.87
2023-01-20T08:04:01.226Z,26.77
2023-01-20T08:06:48.103Z,22.90
2023-01-20T08:09:36.065Z,18.13
2023-01-20T08:12:22.479Z,19.07
2023-01-20T08:15:10.591Z,19.43
2023-01-20T08:17:58.528Z,17.47
2023-01-20T08:20:45.084Z,17.10
2023-01-20T08:23:31.381Z,19.40
2023-01-20T08:26:19.783Z,16.93
2023-01-20T08:29:07.951Z,20.17
2023-01-20T08:31:54.677Z,16.77
2023-01-20T08:34:41.202Z,17.30
2023-01-20T08:37:27.725Z,21.60
2023-01-20T08:40:14.678Z,49.40
2023-01-20T08:43:02.678Z,26.73
2023-01-20T08:45:49.062Z,22.37
2023-01-20T08:48:36.331Z,18.47
2023-01-20T08:51:24.400Z,17.07
2023-01-20T08:54:10.839Z,16.97
2023-01-20T08:56:57.196Z,16.07
2023-01-20T08:59:46.761Z,19.10
2023-01-20T09:02:33.362Z,18.60
2023-01-20T09:05:22.264Z,34.80
2023-01-20T09:08:08.810Z,21.57
2023-01-20T09:10:57.437Z,23.00
2023-01-20T09:13:44.026Z,18.80
2023-01-20T09:16:31.958Z,20.90
2023-01-20T09:19:18.935Z,17.77
2023-01-20T09:22:05.476Z,19.50
2023-01-20T09:24:52.183Z,21.03
2023-01-20T09:27:38.686Z,17.93
2023-01-20T09:30:25.414Z,19.03
2023-01-20T09:33:14.291Z,19.23
2023-01-20T09:36:01.260Z,17.90
2023-01-20T09:39:04.956Z,19.80
2023-01-20T09:42:09.438Z,21.47
2023-01-20T09:45:05.853Z,23.63
2023-01-20T09:47:54.447Z,18.67
2023-01-20T09:51:05.408Z,16.23
2023-01-20T09:54:02.983Z,19.13
2023-01-20T09:56:52.731Z,17.83
2023-01-20T09:59:43.731Z,16.40
2023-01-20T10:02:35.867Z,21.57
2023-01-20T10:05:26.430Z,18.80
2023-01-20T10:08:21.423Z,19.20
2023-01-20T10:11:12.053Z,16.97
2023-01-20T10:14:07.936Z,20.33
2023-01-20T10:17:02.323Z,16.63
2023-01-20T10:19:56.162Z,21.30
2023-01-20T10:22:48.905Z,20.47
2023-01-20T10:25:43.197Z,20.43
2023-01-20T10:28:32.012Z,18.27
2023-01-20T10:31:26.639Z,17.77
2023-01-20T10:34:17.066Z,15.47
2023-01-20T10:37:08.038Z,21.60
2023-01-20T10:39:59.631Z,20.70
2023-01-20T10:42:54.355Z,17.07
2023-01-20T10:45:56.231Z,19.07
2023-01-20T10:49:01.337Z,18.80
2023-01-20T10:51:55.172Z,23.20
2023-01-20T10:54:52.815Z,19.83
2023-01-20T10:57:40.528Z,20.77
2023-01-20T11:00:31.126Z,17.00
2023-01-20T11:03:21.330Z,20.90
2023-01-20T11:06:08.273Z,15.60
2023-01-20T11:08:55.699Z,19.70
2023-01-20T11:11:42.453Z,19.70
2023-01-20T11:14:30.600Z,22.47
2023-01-20T11:17:20.350Z,20.43
2023-01-20T11:20:08.145Z,18.57
2023-01-20T11:22:56.003Z,17.53
2023-01-20T11:25:42.704Z,31.10
2023-01-20T11:28:37.309Z,23.80
2023-01-20T11:31:37.225Z,18.43
2023-01-20T11:34:27.531Z,21.67
2023-01-20T11:37:19.028Z,22.27
2023-01-20T11:40:20.417Z,33.87
2023-01-20T11:43:28.083Z,29.43
2023-01-20T11:46:23.524Z,17.17
2023-01-20T11:49:16.150Z,22.57
2023-01-20T11:52:04.642Z,20.33
2023-01-20T11:55:08.864Z,19.03
2023-01-20T11:57:59.466Z,22.57
2023-01-20T12:00:47.323Z,21.23
2023-01-20T12:04:14.943Z,19.00
2023-01-20T12:07:07.622Z,41.57
2023-01-20T12:09:56.705Z,19.40
2023-01-20T12:12:49.704Z,17.97
2023-01-20T12:15:41.493Z,19.63
2023-01-20T12:18:35.709Z,19.63
2023-01-20T12:21:25.052Z,19.30
2023-01-20T12:24:19.557Z,20.53
2023-01-20T12:27:05.992Z,17.70
2023-01-20T12:29:55.662Z,18.23
2023-01-20T12:32:42.179Z,17.20
2023-01-20T12:35:33.547Z,16.87
2023-01-20T12:38:22.020Z,20.23
2023-01-20T12:41:18.047Z,16.87
2023-01-20T12:44:14.135Z,19.93
2023-01-20T12:47:11.054Z,21.30
2023-01-20T12:50:11.102Z,46.00
2023-01-20T12:53:11.675Z,23.53
2023-01-20T12:56:08.881Z,18.43
2023-01-20T12:59:05.329Z,18.97
2023-01-20T13:02:06.435Z,17.10
2023-01-20T13:05:10.224Z,18.73
2023-01-20T13:08:10.446Z,18.70
2023-01-20T13:11:07.405Z,23.80
2023-01-20T13:14:07.677Z,18.33
2023-01-20T13:17:02.235Z,17.70
2023-01-20T13:19:51.809Z,18.63
2023-01-20T13:22:38.716Z,15.33
2023-01-20T13:25:25.678Z,13.93
2023-01-20T13:28:20.325Z,18.33
2023-01-20T13:31:43.954Z,21.93
2023-01-20T13:34:36.300Z,16.57
2023-01-20T13:37:32.970Z,17.33
2023-01-20T13:40:50.086Z,15.83
2023-01-20T13:43:57.802Z,15.77
2023-01-20T13:46:50.042Z,17.07
2023-01-20T13:49:51.319Z,19.37
2023-01-20T13:53:15.620Z,16.40
2023-01-20T13:56:03.437Z,13.70
2023-01-20T13:58:49.756Z,26.67
2023-01-20T14:01:37.513Z,20.27
2023-01-20T14:04:25.332Z,16.20
2023-01-20T14:07:23.823Z,12.57
2023-01-20T14:10:14.143Z,23.63
2023-01-20T14:13:01.007Z,16.97
2023-01-20T14:15:51.689Z,16.37
2023-01-20T14:18:41.442Z,18.00
2023-01-20T14:21:31.119Z,18.10
2023-01-20T14:24:28.568Z,18.87
2023-01-20T14:27:19.969Z,14.10
2023-01-20T14:30:17.503Z,18.17
2023-01-20T14:33:09.356Z,18.37
2023-01-20T14:35:55.933Z,30.07
2023-01-20T14:38:56.330Z,22.53
2023-01-20T14:41:49.516Z,15.87
2023-01-20T14:44:36.112Z,21.27
2023-01-20T14:47:25.562Z,20.17
2023-01-20T14:50:15.032Z,19.20
2023-01-20T14:53:01.863Z,20.50
2023-01-20T14:56:02.101Z,17.57
2023-01-20T14:58:50.479Z,22.70
2023-01-20T15:01:37.116Z,21.03
2023-01-20T15:04:24.191Z,20.00
2023-01-20T15:07:19.687Z,22.40
2023-01-20T15:10:08.847Z,24.63
2023-01-20T15:12:56.980Z,25.33
2023-01-20T15:15:43.704Z,29.73
2023-01-20T15:18:30.599Z,28.83
2023-01-20T15:21:27.034Z,28.60
2023-01-20T15:24:14.677Z,21.17
2023-01-20T15:27:02.724Z,22.20
2023-01-20T15:30:13.947Z,26.57
2023-01-20T15:33:00.656Z,21.73
2023-01-20T15:35:47.051Z,19.20
2023-01-20T15:38:33.667Z,21.17
2023-01-20T15:41:20.661Z,38.20
2023-01-20T15:44:07.220Z,26.23
2023-01-20T15:46:57.557Z,19.53
2023-01-20T15:49:44.607Z,26.50
2023-01-20T15:52:31.311Z,24.23
2023-01-20T15:55:19.867Z,23.87
2023-01-20T15:58:20.995Z,30.43
2023-01-20T16:01:07.697Z,32.70
2023-01-20T16:03:56.595Z,32.23
2023-01-20T16:06:43.958Z,31.17
2023-01-20T16:09:33.770Z,28.47
2023-01-20T16:12:20.185Z,31.33
2023-01-20T16:15:07.792Z,32.70
2023-01-20T16:17:54.229Z,26.90
2023-01-20T16:20:42.945Z,29.33
2023-01-20T16:23:29.455Z,23.80
2023-01-20T16:26:22.535Z,25.50
2023-01-20T16:29:10.544Z,31.13
2023-01-20T16:31:57.253Z,32.03
2023-01-20T16:34:44.219Z,33.83
2023-01-20T16:37:32.103Z,27.27
2023-01-20T16:40:20.335Z,23.60
2023-01-20T16:43:06.869Z,23.67
2023-01-20T16:45:55.162Z,30.33
2023-01-20T16:48:42.287Z,47.20
2023-01-20T16:51:30.741Z,32.10
2023-01-20T16:54:18.681Z,35.10
2023-01-20T16:57:05.455Z,35.47
2023-01-20T16:59:52.007Z,53.77
2023-01-20T17:02:39.167Z,26.73
2023-01-20T17:05:28.293Z,24.70
2023-01-20T17:08:14.715Z,27.83
2023-01-20T17:11:02.644Z,41.73
2023-01-20T17:13:49.261Z,40.00
2023-01-20T17:16:36.006Z,33.30
2023-01-20T17:19:22.824Z,30.40
2023-01-20T17:22:09.274Z,28.27
2023-01-20T17:24:55.519Z,34.13
2023-01-20T17:27:43.212Z,42.73
2023-01-20T17:30:29.669Z,28.00
2023-01-20T17:33:16.031Z,34.90
2023-01-20T17:36:04.299Z,38.70
2023-01-20T17:38:50.801Z,42.30
2023-01-20T17:41:37.298Z,54.47
2023-01-20T17:44:25.009Z,52.30
2023-01-20T17:47:12.157Z,52.20
2023-01-20T17:49:58.740Z,51.77
2023-01-20T17:52:45.180Z,45.63
2023-01-20T17:55:31.469Z,47.60
2023-01-20T17:58:17.799Z,50.40
2023-01-20T18:01:13.750Z,60.37
2023-01-20T18:04:00.891Z,61.27
2023-01-20T18:06:47.877Z,58.87
2023-01-20T18:09:35.985Z,69.03
2023-01-20T18:12:22.498Z,52.97
2023-01-20T18:15:09.529Z,43.03
2023-01-20T18:17:57.441Z,37.07
2023-01-20T18:20:43.769Z,38.97
2023-01-20T18:23:29.973Z,37.43
2023-01-20T18:26:18.369Z,29.17
2023-01-20T18:29:07.072Z,33.17
2023-01-20T18:31:53.494Z,33.10
2023-01-20T18:34:41.214Z,31.80
2023-01-20T18:37:27.780Z,36.07
2023-01-20T18:40:14.884Z,40.07
2023-01-20T18:43:01.587Z,43.87
2023-01-20T18:45:48.191Z,49.00
2023-01-20T18:48:37.861Z,38.13
2023-01-20T18:51:28.131Z,48.33
2023-01-20T18:54:17.443Z,55.20
2023-01-20T18:57:04.144Z,53.70
2023-01-20T18:59:50.942Z,52.23
2023-01-20T19:02:37.222Z,49.20
2023-01-20T19:05:24.110Z,53.40
2023-01-20T19:08:11.944Z,62.87
2023-01-20T19:11:01.531Z,62.20
2023-01-20T19:13:49.877Z,53.57
2023-01-20T19:16:39.091Z,64.03
2023-01-20T19:19:25.570Z,63.10
2023-01-20T19:22:11.848Z,58.07
2023-01-20T19:25:00.304Z,61.30
2023-01-20T19:27:46.823Z,50.83
2023-01-20T19:30:33.212Z,65.90
2023-01-20T19:33:19.630Z,53.37
2023-01-20T19:36:08.393Z,50.87
2023-01-20T19:38:54.886Z,47.60
2023-01-20T19:41:43.653Z,46.10
2023-01-20T19:44:30.351Z,39.87
2023-01-20T19:47:16.688Z,36.53
2023-01-20T19:50:02.959Z,38.80
2023-01-20T19:52:49.489Z,41.83
2023-01-20T19:55:35.841Z,40.83
2023-01-20T19:58:23.506Z,46.23
2023-01-20T20:01:10.836Z,48.87
2023-01-20T20:03:57.374Z,43.37
2023-01-20T20:06:48.532Z,40.50
2023-01-20T20:09:35.336Z,40.57
2023-01-20T20:12:21.958Z,43.80
2023-01-20T20:15:10.618Z,46.70
2023-01-20T20:17:58.039Z,44.93
2023-01-20T20:20:45.748Z,53.17
2023-01-20T20:23:32.409Z,53.83
2023-01-20T20:26:18.821Z,53.73
2023-01-20T20:29:07.055Z,51.83
2023-01-20T20:31:54.890Z,50.27
2023-01-20T20:34:41.636Z,54.47
2023-01-20T20:37:28.132Z,52.63
2023-01-20T20:40:15.161Z,57.13
2023-01-20T20:43:01.922Z,53.00
2023-01-20T20:45:48.384Z,46.97
2023-01-20T20:48:36.581Z,50.23
2023-01-20T20:51:23.972Z,42.43
2023-01-20T20:54:12.953Z,41.63
2023-01-20T20:56:59.858Z,44.43
2023-01-20T20:59:58.588Z,47.60
2023-01-20T21:02:45.930Z,46.53
2023-01-20T21:05:34.014Z,50.70
2023-01-20T21:08:20.525Z,41.37
2023-01-20T21:11:09.350Z,71.20
2023-01-20T21:13:55.755Z,38.33
2023-01-20T21:16:42.144Z,38.13
2023-01-20T21:19:28.735Z,42.97
2023-01-20T21:22:16.377Z,38.30
2023-01-20T21:25:02.786Z,38.47
2023-01-20T21:27:49.357Z,44.37
2023-01-20T21:30:36.069Z,37.53
2023-01-20T21:33:23.235Z,37.57
2023-01-20T21:36:12.528Z,40.63
2023-01-20T21:39:00.978Z,35.77
2023-01-20T21:41:47.937Z,40.20
2023-01-20T21:44:36.197Z,35.13
2023-01-20T21:47:22.471Z,42.30
2023-01-20T21:50:29.029Z,43.10
2023-01-20T21:53:15.629Z,47.83
2023-01-20T21:56:03.353Z,54.53
2023-01-20T21:58:49.934Z,48.13
2023-01-20T22:01:37.460Z,39.67
2023-01-20T22:04:23.885Z,43.60
2023-01-20T22:07:10.556Z,44.40
2023-01-20T22:09:58.317Z,43.60
2023-01-20T22:12:46.063Z,40.17
2023-01-20T22:15:33.926Z,39.93
2023-01-20T22:18:21.234Z,42.77
2023-01-20T22:21:09.063Z,42.80
2023-01-20T22:23:55.685Z,38.93
2023-01-20T22:26:42.244Z,47.27
2023-01-20T22:29:29.904Z,44.67
2023-01-20T22:32:16.461Z,44.50
2023-01-20T22:35:02.805Z,51.80
2023-01-20T22:37:49.288Z,47.00
2023-01-20T22:40:35.756Z,50.97
2023-01-20T22:43:22.479Z,49.67
2023-01-20T22:46:12.604Z,47.23
2023-01-20T22:49:00.348Z,55.03
2023-01-20T22:51:46.733Z,49.07
2023-01-20T22:54:33.073Z,47.83
2023-01-20T22:57:19.529Z,48.63
2023-01-20T23:00:07.904Z,46.03
2023-01-20T23:02:55.834Z,50.53
2023-01-20T23:05:51.602Z,50.53
2023-01-20T23:08:39.031Z,52.07
2023-01-20T23:11:25.653Z,54.73
2023-01-20T23:14:13.410Z,48.03
2023-01-20T23:16:59.961Z,46.53
2023-01-20T23:19:47.969Z,42.80
2023-01-20T23:22:34.482Z,50.37
2023-01-20T23:25:20.733Z,52.37
2023-01-20T23:28:06.997Z,51.27
2023-01-20T23:30:53.297Z,47.50
2023-01-20T23:33:42.514Z,44.67
2023-01-20T23:36:31.449Z,43.50
2023-01-20T23:39:17.982Z,48.57
2023-01-20T23:42:04.212Z,47.67
2023-01-20T23:44:50.747Z,59.73
2023-01-20T23:47:36.996Z,46.53
2023-01-20T23:50:23.311Z,57.23
2023-01-20T23:53:11.096Z,48.30
2023-01-20T23:56:01.295Z,51.77
2023-01-20T23:58:48.161Z,45.77
